createdAt,value
2022-11-30T00:01:01.548Z,4.96
2022-11-30T00:03:32.288Z,4.96
2022-11-30T00:06:08.914Z,4.95
2022-11-30T00:08:39.660Z,4.95
2022-11-30T00:11:17.743Z,4.96
2022-11-30T00:13:48.529Z,4.96
2022-11-30T00:16:19.295Z,4.95
2022-11-30T00:18:50.392Z,4.96
2022-11-30T00:21:21.233Z,4.96
2022-11-30T00:23:51.989Z,4.98
2022-11-30T00:26:23.325Z,4.99
2022-11-30T00:28:54.322Z,4.98
2022-11-30T00:31:24.955Z,4.99
2022-11-30T00:33:55.758Z,4.98
2022-11-30T00:36:26.420Z,4.98
2022-11-30T00:38:57.058Z,4.97
2022-11-30T00:41:27.699Z,4.96
2022-11-30T00:43:58.345Z,4.95
2022-11-30T00:46:28.954Z,4.95
2022-11-30T00:48:59.761Z,4.95
2022-11-30T00:51:30.479Z,4.95
2022-11-30T00:54:01.127Z,4.94
2022-11-30T00:56:31.823Z,4.94
2022-11-30T00:59:02.491Z,4.95
2022-11-30T01:01:33.161Z,4.96
2022-11-30T01:04:04.516Z,4.97
2022-11-30T01:06:35.172Z,4.97
2022-11-30T01:09:06.546Z,4.99
2022-11-30T01:11:37.298Z,4.99
2022-11-30T01:14:08.109Z,4.99
2022-11-30T01:16:38.996Z,4.99
2022-11-30T01:19:09.721Z,5.00
2022-11-30T01:21:41.096Z,5.00
2022-11-30T01:24:13.242Z,5.00
2022-11-30T01:26:43.806Z,5.00
2022-11-30T01:29:14.437Z,5.00
2022-11-30T01:31:45.068Z,5.01
2022-11-30T01:34:15.848Z,5.02
2022-11-30T01:36:48.624Z,5.03
2022-11-30T01:39:19.409Z,5.02
2022-11-30T01:41:50.118Z,5.03
2022-11-30T01:44:52.910Z,5.03
2022-11-30T01:47:29.584Z,5.04
2022-11-30T01:50:06.005Z,5.03
2022-11-30T01:52:39.765Z,5.04
2022-11-30T01:55:19.875Z,5.05
2022-11-30T01:57:52.673Z,5.05
2022-11-30T02:00:24.444Z,5.05
2022-11-30T02:03:01.541Z,5.06
2022-11-30T02:05:32.644Z,5.06
2022-11-30T02:08:03.900Z,5.06
2022-11-30T02:10:38.221Z,5.04
2022-11-30T02:13:35.928Z,5.03
2022-11-30T02:16:18.756Z,5.02
2022-11-30T02:19:00.761Z,5.00
2022-11-30T02:21:41.601Z,5.00
2022-11-30T02:24:36.375Z,4.99
2022-11-30T02:27:16.138Z,4.98
2022-11-30T02:29:50.773Z,4.96
2022-11-30T02:32:26.969Z,4.94
2022-11-30T02:34:59.673Z,4.93
2022-11-30T02:37:31.174Z,4.93
2022-11-30T02:40:02.473Z,4.93
2022-11-30T02:42:33.124Z,4.93
2022-11-30T02:45:04.260Z,4.92
2022-11-30T02:47:41.911Z,4.90
2022-11-30T02:50:16.586Z,4.81
2022-11-30T02:52:48.039Z,4.88
2022-11-30T02:55:20.912Z,4.88
2022-11-30T02:57:51.646Z,4.87
2022-11-30T03:00:23.572Z,4.86
2022-11-30T03:02:55.087Z,4.85
2022-11-30T03:05:25.835Z,4.84
2022-11-30T03:07:56.639Z,4.83
2022-11-30T03:10:27.394Z,4.82
2022-11-30T03:13:01.452Z,4.81
2022-11-30T03:15:32.164Z,4.80
2022-11-30T03:18:05.996Z,4.80
2022-11-30T03:20:36.605Z,4.78
2022-11-30T03:23:07.168Z,4.77
2022-11-30T03:25:37.779Z,4.75
2022-11-30T03:28:08.533Z,4.73
2022-11-30T03:30:39.138Z,4.72
2022-11-30T03:33:09.848Z,4.70
2022-11-30T03:35:40.601Z,4.69
2022-11-30T03:38:11.682Z,4.67
2022-11-30T03:40:42.371Z,4.65
2022-11-30T03:43:13.184Z,4.62
2022-11-30T03:45:47.657Z,4.59
2022-11-30T03:48:18.272Z,4.57
2022-11-30T03:50:50.225Z,4.56
2022-11-30T03:53:22.305Z,4.54
2022-11-30T03:55:56.971Z,4.52
2022-11-30T03:58:28.099Z,4.52
2022-11-30T04:01:04.175Z,4.51
2022-11-30T04:03:35.365Z,4.49
2022-11-30T04:06:07.964Z,4.47
2022-11-30T04:08:39.239Z,4.47
2022-11-30T04:11:10.729Z,4.46
2022-11-30T04:13:44.269Z,4.47
2022-11-30T04:16:14.937Z,4.48
2022-11-30T04:18:45.733Z,4.46
2022-11-30T04:21:16.354Z,4.46
2022-11-30T04:23:47.090Z,4.45
2022-11-30T04:26:18.990Z,4.44
2022-11-30T04:28:49.669Z,4.42
2022-11-30T04:31:20.354Z,4.40
2022-11-30T04:33:53.568Z,4.39
2022-11-30T04:36:24.241Z,4.38
2022-11-30T04:38:54.839Z,4.37
2022-11-30T04:41:25.581Z,4.36
2022-11-30T04:43:56.597Z,4.32
2022-11-30T04:46:27.452Z,4.35
2022-11-30T04:48:58.290Z,4.33
2022-11-30T04:51:28.911Z,4.30
2022-11-30T04:53:59.612Z,4.29
2022-11-30T04:56:38.635Z,4.28
2022-11-30T04:59:08.126Z,4.26
2022-11-30T05:01:41.637Z,4.25
2022-11-30T05:04:12.280Z,4.25
2022-11-30T05:06:43.088Z,4.24
2022-11-30T05:09:13.758Z,4.25
2022-11-30T05:11:44.358Z,4.24
2022-11-30T05:14:15.194Z,4.21
2022-11-30T05:16:47.909Z,4.20
2022-11-30T05:19:18.576Z,4.21
2022-11-30T05:21:49.177Z,4.21
2022-11-30T05:24:19.922Z,4.22
2022-11-30T05:26:50.686Z,4.22
2022-11-30T05:29:21.349Z,4.22
2022-11-30T05:31:52.050Z,4.22
2022-11-30T05:34:22.707Z,4.22
2022-11-30T05:36:53.534Z,4.23
2022-11-30T05:39:24.101Z,4.23
2022-11-30T05:41:55.074Z,4.23
2022-11-30T05:44:25.803Z,4.21
2022-11-30T05:46:56.815Z,4.20
2022-11-30T05:49:27.614Z,4.18
2022-11-30T05:51:58.274Z,4.15
2022-11-30T05:54:28.976Z,4.16
2022-11-30T05:56:59.615Z,4.16
2022-11-30T05:59:30.283Z,4.17
2022-11-30T06:02:00.994Z,4.17
2022-11-30T06:04:32.115Z,4.17
2022-11-30T06:07:03.005Z,4.17
2022-11-30T06:09:33.606Z,4.12
2022-11-30T06:12:04.322Z,4.09
2022-11-30T06:14:35.063Z,4.07
2022-11-30T06:17:05.894Z,4.07
2022-11-30T06:19:36.902Z,4.03
2022-11-30T06:22:07.520Z,4.00
2022-11-30T06:24:38.161Z,4.00
2022-11-30T06:27:08.727Z,3.99
2022-11-30T06:29:39.407Z,3.99
2022-11-30T06:32:10.769Z,3.98
2022-11-30T06:34:41.491Z,3.97
2022-11-30T06:37:12.278Z,3.95
2022-11-30T06:40:05.569Z,3.93
2022-11-30T06:42:33.931Z,3.93
2022-11-30T06:45:05.476Z,3.92
2022-11-30T06:47:36.169Z,3.92
2022-11-30T06:50:09.700Z,3.91
2022-11-30T06:52:40.394Z,3.95
2022-11-30T06:55:11.936Z,4.58
2022-11-30T06:57:42.828Z,5.32
2022-11-30T07:00:15.637Z,5.70
2022-11-30T07:02:46.484Z,5.71
2022-11-30T07:05:17.312Z,5.63
2022-11-30T07:07:48.609Z,5.51
2022-11-30T07:10:20.366Z,5.38
2022-11-30T07:12:51.550Z,5.24
2022-11-30T07:15:22.208Z,5.09
2022-11-30T07:17:52.911Z,4.95
2022-11-30T07:20:23.586Z,4.86
2022-11-30T07:22:57.784Z,4.77
2022-11-30T07:25:45.955Z,4.71
2022-11-30T07:28:16.597Z,4.72
2022-11-30T07:30:47.420Z,4.77
2022-11-30T07:33:18.060Z,4.87
2022-11-30T07:35:48.694Z,4.98
2022-11-30T07:38:19.340Z,5.09
2022-11-30T07:40:50.023Z,5.19
2022-11-30T07:43:20.578Z,5.31
2022-11-30T07:45:56.219Z,5.43
2022-11-30T07:48:27.112Z,5.53
2022-11-30T07:51:02.511Z,5.61
2022-11-30T07:53:33.129Z,5.71
2022-11-30T07:56:09.984Z,5.79
2022-11-30T07:58:41.625Z,5.90
2022-11-30T08:01:15.123Z,6.05
2022-11-30T08:03:46.217Z,6.16
2022-11-30T08:06:20.119Z,6.21
2022-11-30T08:08:52.615Z,6.33
2022-11-30T08:11:25.274Z,6.44
2022-11-30T08:13:56.296Z,6.52
2022-11-30T08:16:29.181Z,6.61
2022-11-30T08:18:58.869Z,6.69
2022-11-30T08:21:29.471Z,6.73
2022-11-30T08:24:00.220Z,6.82
2022-11-30T08:26:32.894Z,6.91
2022-11-30T08:29:03.873Z,6.99
2022-11-30T08:31:37.355Z,7.11
2022-11-30T08:34:10.652Z,7.18
2022-11-30T08:36:43.398Z,7.25
2022-11-30T08:39:15.608Z,7.27
2022-11-30T08:41:46.330Z,7.28
2022-11-30T08:44:16.926Z,7.19
2022-11-30T08:49:38.512Z,7.26
2022-11-30T08:52:18.166Z,7.33
2022-11-30T08:54:50.618Z,7.37
2022-11-30T08:57:22.811Z,7.38
2022-11-30T08:59:53.505Z,7.37
2022-11-30T09:02:24.426Z,7.38
2022-11-30T09:04:55.179Z,7.39
2022-11-30T09:07:25.957Z,7.40
2022-11-30T09:09:56.860Z,7.41
2022-11-30T09:12:27.575Z,7.47
2022-11-30T09:14:58.853Z,7.52
2022-11-30T09:17:30.059Z,7.55
2022-11-30T09:20:02.446Z,7.53
2022-11-30T09:22:33.312Z,7.42
2022-11-30T09:25:03.963Z,7.34
2022-11-30T09:27:35.832Z,7.26
2022-11-30T09:30:08.688Z,7.24
2022-11-30T09:32:39.537Z,7.20
2022-11-30T09:35:12.903Z,7.16
2022-11-30T09:37:43.959Z,7.19
2022-11-30T09:40:16.677Z,7.27
2022-11-30T09:42:58.685Z,7.30
2022-11-30T09:45:32.838Z,7.35
2022-11-30T09:48:26.472Z,7.40
2022-11-30T09:51:01.111Z,7.35
2022-11-30T09:53:39.608Z,7.32
2022-11-30T09:56:20.942Z,7.33
2022-11-30T09:58:57.423Z,7.36
2022-11-30T10:01:32.000Z,7.42
2022-11-30T10:04:03.877Z,7.44
2022-11-30T10:06:44.229Z,7.47
2022-11-30T10:09:30.768Z,7.49
2022-11-30T10:12:07.101Z,7.49
2022-11-30T10:15:06.676Z,7.54
2022-11-30T10:17:44.275Z,7.59
2022-11-30T10:20:28.007Z,7.58
2022-11-30T10:23:11.923Z,7.56
2022-11-30T10:25:52.336Z,7.56
2022-11-30T10:31:21.423Z,7.56
2022-11-30T10:33:53.726Z,7.55
2022-11-30T10:36:31.042Z,7.55
2022-11-30T10:39:04.512Z,7.51
2022-11-30T10:41:44.645Z,7.47
2022-11-30T10:44:23.119Z,7.37
2022-11-30T10:47:00.656Z,7.31
2022-11-30T10:49:33.963Z,7.31
2022-11-30T10:52:09.715Z,7.31
2022-11-30T10:54:40.473Z,7.28
2022-11-30T10:57:14.508Z,7.16
2022-11-30T10:59:49.167Z,7.07
2022-11-30T11:02:45.765Z,7.06
2022-11-30T11:05:23.795Z,7.11
2022-11-30T11:08:04.375Z,7.15
2022-11-30T11:10:46.884Z,7.18
2022-11-30T11:13:21.687Z,7.22
2022-11-30T11:16:01.812Z,7.26
2022-11-30T11:18:33.854Z,7.27
2022-11-30T11:21:08.009Z,7.30
2022-11-30T11:23:41.669Z,7.31
2022-11-30T11:26:21.438Z,7.30
2022-11-30T11:28:53.694Z,7.26
2022-11-30T11:31:37.371Z,7.24
2022-11-30T11:34:24.855Z,7.22
2022-11-30T11:37:08.090Z,7.16
2022-11-30T11:39:38.688Z,7.07
2022-11-30T11:42:22.746Z,6.99
2022-11-30T11:44:56.902Z,6.88
2022-11-30T11:47:30.094Z,6.81
2022-11-30T11:50:58.308Z,6.75
2022-11-30T11:53:25.755Z,6.65
2022-11-30T11:56:01.022Z,6.57
2022-11-30T11:58:43.247Z,6.49
2022-11-30T12:04:41.185Z,6.51
2022-11-30T12:07:22.166Z,6.42
2022-11-30T12:10:09.601Z,6.38
2022-11-30T12:12:55.098Z,6.36
2022-11-30T12:15:33.482Z,6.34
2022-11-30T12:18:23.594Z,6.34
2022-11-30T12:21:01.661Z,6.34
2022-11-30T12:23:56.368Z,6.38
2022-11-30T12:26:35.776Z,6.48
2022-11-30T12:29:24.598Z,6.49
2022-11-30T12:32:12.079Z,6.48
2022-11-30T12:34:57.421Z,6.45
2022-11-30T12:37:37.480Z,6.53
2022-11-30T12:40:27.607Z,6.51
2022-11-30T12:43:08.221Z,6.49
2022-11-30T12:45:43.621Z,6.44
2022-11-30T12:48:26.639Z,6.42
2022-11-30T12:51:12.194Z,6.40
2022-11-30T12:53:49.817Z,6.37
2022-11-30T12:56:31.835Z,6.32
2022-11-30T12:59:15.592Z,6.30
2022-11-30T13:02:09.978Z,6.28
2022-11-30T13:04:45.262Z,6.27
2022-11-30T13:07:26.839Z,6.28
2022-11-30T13:10:04.068Z,6.31
2022-11-30T13:12:38.369Z,6.31
2022-11-30T13:15:15.901Z,6.34
2022-11-30T13:17:48.080Z,6.36
2022-11-30T13:20:24.866Z,6.33
2022-11-30T13:23:00.685Z,6.36
2022-11-30T13:28:41.019Z,6.41
2022-11-30T13:31:18.727Z,6.46
2022-11-30T13:33:57.804Z,6.45
2022-11-30T13:36:31.942Z,6.48
2022-11-30T13:39:29.043Z,6.47
2022-11-30T13:42:15.992Z,6.45
2022-11-30T13:44:47.547Z,6.42
2022-11-30T13:47:28.378Z,6.39
2022-11-30T13:50:00.777Z,6.38
2022-11-30T13:53:02.450Z,6.38
2022-11-30T13:55:53.855Z,6.35
2022-11-30T13:58:24.889Z,6.31
2022-11-30T14:01:30.699Z,6.24
2022-11-30T14:04:31.785Z,6.20
2022-11-30T14:07:02.577Z,6.17
2022-11-30T14:10:01.888Z,6.16
2022-11-30T14:12:48.599Z,6.14
2022-11-30T14:15:46.607Z,6.15
2022-11-30T14:18:26.102Z,6.13
2022-11-30T14:20:59.212Z,6.13
2022-11-30T14:23:34.678Z,6.13
2022-11-30T14:26:11.091Z,6.12
2022-11-30T14:28:51.351Z,6.11
2022-11-30T14:31:25.995Z,6.09
2022-11-30T14:33:59.950Z,6.08
2022-11-30T14:36:41.333Z,6.06
2022-11-30T14:42:22.714Z,6.04
2022-11-30T14:44:53.647Z,5.99
2022-11-30T14:47:29.806Z,5.96
2022-11-30T14:50:02.986Z,5.94
2022-11-30T14:52:59.760Z,5.91
2022-11-30T14:55:37.279Z,5.90
2022-11-30T14:58:19.143Z,5.87
2022-11-30T15:00:51.050Z,5.84
2022-11-30T15:03:27.244Z,5.81
2022-11-30T15:06:00.442Z,5.81
2022-11-30T15:08:39.401Z,5.78
2022-11-30T15:11:13.007Z,5.73
2022-11-30T15:13:46.208Z,5.70
2022-11-30T15:16:22.777Z,5.69
2022-11-30T15:18:55.490Z,5.70
2022-11-30T15:21:28.811Z,5.72
2022-11-30T15:24:00.811Z,5.74
2022-11-30T15:26:37.807Z,5.70
2022-11-30T15:29:13.916Z,5.75
2022-11-30T15:31:47.081Z,5.75
2022-11-30T15:34:23.126Z,5.75
2022-11-30T15:36:56.771Z,5.74
2022-11-30T15:39:30.348Z,5.72
2022-11-30T15:42:02.746Z,5.73
2022-11-30T15:44:45.453Z,5.73
2022-11-30T15:47:32.880Z,5.73
2022-11-30T15:50:04.455Z,5.74
2022-11-30T15:52:36.384Z,5.75
2022-11-30T15:55:29.913Z,5.74
2022-11-30T15:58:03.255Z,5.73
2022-11-30T16:00:33.998Z,5.74
2022-11-30T16:03:13.209Z,5.75
2022-11-30T16:05:58.353Z,5.74
2022-11-30T16:08:29.469Z,5.73
2022-11-30T16:11:06.186Z,5.74
2022-11-30T16:13:38.498Z,5.73
2022-11-30T16:16:14.083Z,5.73
2022-11-30T16:18:44.906Z,5.72
2022-11-30T16:21:17.684Z,5.72
2022-11-30T16:23:49.181Z,5.73
2022-11-30T16:26:49.527Z,5.74
2022-11-30T16:29:11.821Z,5.74
2022-11-30T16:31:42.630Z,5.71
2022-11-30T16:34:14.119Z,5.74
2022-11-30T16:36:44.939Z,5.74
2022-11-30T16:39:15.573Z,5.74
2022-11-30T16:41:46.333Z,5.71
2022-11-30T16:44:17.466Z,5.66
2022-11-30T16:46:48.761Z,5.63
2022-11-30T16:49:19.424Z,5.60
2022-11-30T16:51:50.126Z,5.57
2022-11-30T16:54:20.933Z,5.56
2022-11-30T16:56:51.703Z,5.56
2022-11-30T16:59:22.465Z,5.58
2022-11-30T17:01:53.867Z,5.56
2022-11-30T17:04:27.006Z,5.59
2022-11-30T17:07:02.736Z,5.59
2022-11-30T17:09:34.715Z,5.60
2022-11-30T17:12:05.667Z,5.61
2022-11-30T17:14:36.338Z,5.61
2022-11-30T17:17:07.159Z,5.62
2022-11-30T17:19:38.832Z,5.62
2022-11-30T17:22:09.459Z,5.59
2022-11-30T17:24:40.098Z,5.56
2022-11-30T17:27:12.058Z,5.54
2022-11-30T17:29:43.773Z,5.47
2022-11-30T17:32:14.694Z,5.40
2022-11-30T17:34:45.605Z,5.35
2022-11-30T17:37:16.959Z,5.36
2022-11-30T17:39:47.738Z,5.31
2022-11-30T17:42:18.449Z,5.27
2022-11-30T17:44:49.570Z,5.20
2022-11-30T17:47:22.184Z,5.17
2022-11-30T17:49:53.394Z,5.11
2022-11-30T17:52:24.028Z,5.05
2022-11-30T17:54:54.711Z,4.99
2022-11-30T17:57:25.417Z,4.95
2022-11-30T17:59:56.234Z,4.93
2022-11-30T18:02:26.969Z,4.93
2022-11-30T18:04:58.348Z,4.92
2022-11-30T18:07:32.940Z,4.93
2022-11-30T18:10:08.730Z,4.95
2022-11-30T18:12:39.734Z,4.96
2022-11-30T18:15:12.059Z,5.00
2022-11-30T18:17:42.724Z,5.01
2022-11-30T18:20:15.057Z,5.02
2022-11-30T18:22:45.828Z,5.00
2022-11-30T18:25:31.223Z,4.98
2022-11-30T18:28:08.486Z,4.92
2022-11-30T18:30:40.977Z,4.89
2022-11-30T18:33:11.838Z,4.85
2022-11-30T18:35:42.511Z,4.82
2022-11-30T18:38:13.620Z,4.77
2022-11-30T18:40:44.813Z,4.73
2022-11-30T18:43:15.777Z,4.67
2022-11-30T18:45:46.535Z,4.64
2022-11-30T18:48:17.423Z,4.60
2022-11-30T18:50:48.261Z,4.58
2022-11-30T18:53:19.302Z,4.58
2022-11-30T18:55:50.002Z,4.59
2022-11-30T18:58:20.734Z,4.62
2022-11-30T19:00:51.557Z,4.62
2022-11-30T19:03:22.510Z,4.58
2022-11-30T19:05:53.310Z,4.55
2022-11-30T19:08:23.975Z,4.49
2022-11-30T19:10:54.660Z,4.44
2022-11-30T19:13:25.454Z,4.44
2022-11-30T19:15:56.234Z,4.47
2022-11-30T19:18:27.075Z,4.50
2022-11-30T19:20:57.827Z,4.48
2022-11-30T19:23:28.646Z,4.50
2022-11-30T19:26:03.514Z,4.56
2022-11-30T19:28:36.573Z,4.59
2022-11-30T19:31:11.734Z,4.57
2022-11-30T19:33:44.315Z,4.59
2022-11-30T19:36:17.037Z,4.54
2022-11-30T19:38:47.906Z,4.51
2022-11-30T19:41:19.581Z,4.45
2022-11-30T19:43:59.594Z,4.38
2022-11-30T19:46:34.617Z,4.28
2022-11-30T19:49:08.025Z,4.18
2022-11-30T19:51:37.131Z,4.09
2022-11-30T19:54:07.978Z,4.01
2022-11-30T19:56:41.159Z,3.95
2022-11-30T19:59:12.073Z,3.91
2022-11-30T20:01:43.015Z,3.84
2022-11-30T20:04:14.310Z,3.75
2022-11-30T20:06:44.986Z,3.72
2022-11-30T20:09:15.750Z,3.68
2022-11-30T20:11:46.385Z,3.67
2022-11-30T20:14:19.711Z,3.65
2022-11-30T20:16:52.834Z,3.61
2022-11-30T20:19:22.036Z,3.60
2022-11-30T20:21:52.973Z,3.58
2022-11-30T20:24:23.763Z,3.54
2022-11-30T20:26:54.617Z,3.51
2022-11-30T20:29:28.898Z,3.51
2022-11-30T20:32:00.224Z,3.45
2022-11-30T20:34:34.621Z,3.40
2022-11-30T20:37:06.782Z,3.40
2022-11-30T20:39:42.529Z,3.36
2022-11-30T20:42:16.432Z,3.32
2022-11-30T20:44:47.743Z,3.24
2022-11-30T20:47:18.779Z,3.14
2022-11-30T20:49:49.990Z,3.09
2022-11-30T20:52:21.082Z,3.02
2022-11-30T20:54:51.828Z,2.98
2022-11-30T20:57:22.453Z,2.97
2022-11-30T20:59:53.324Z,2.93
2022-11-30T21:02:24.271Z,2.88
2022-11-30T21:04:55.096Z,2.83
2022-11-30T21:07:25.887Z,2.80
2022-11-30T21:09:56.656Z,2.77
2022-11-30T21:12:27.303Z,2.78
2022-11-30T21:14:58.007Z,2.79
2022-11-30T21:17:28.839Z,2.79
2022-11-30T21:20:00.650Z,2.79
2022-11-30T21:22:34.711Z,2.81
2022-11-30T21:25:06.093Z,2.85
2022-11-30T21:27:36.854Z,2.87
2022-11-30T21:30:09.953Z,2.91
2022-11-30T21:32:39.041Z,2.95
2022-11-30T21:35:11.432Z,2.97
2022-11-30T21:37:42.061Z,2.94
2022-11-30T21:40:14.602Z,2.94
2022-11-30T21:42:45.341Z,2.95
2022-11-30T21:45:16.110Z,2.93
2022-11-30T21:47:46.803Z,2.95
2022-11-30T21:50:19.887Z,2.96
2022-11-30T21:52:52.596Z,3.00
2022-11-30T21:55:23.168Z,3.06
2022-11-30T21:57:56.246Z,3.10
2022-11-30T22:00:25.615Z,3.13
2022-11-30T22:02:56.485Z,3.14
2022-11-30T22:05:27.124Z,3.13
2022-11-30T22:07:58.043Z,3.11
2022-11-30T22:10:28.798Z,3.11
2022-11-30T22:12:59.399Z,3.11
2022-11-30T22:15:40.411Z,3.11
2022-11-30T22:25:41.506Z,3.08
2022-11-30T22:28:19.403Z,3.10
2022-11-30T22:28:35.933Z,3.10
2022-11-30T22:31:33.129Z,3.11
2022-11-30T22:40:14.961Z,2.99
2022-11-30T22:42:45.729Z,2.96
2022-11-30T22:45:16.757Z,2.90
2022-11-30T22:47:47.427Z,2.91
2022-11-30T22:50:18.275Z,2.91
2022-11-30T22:53:02.945Z,2.92
2022-11-30T22:55:33.915Z,2.91
2022-11-30T22:58:04.667Z,2.88
2022-11-30T23:00:35.274Z,2.84
2022-11-30T23:03:06.320Z,2.82
2022-11-30T23:05:38.338Z,2.80
2022-11-30T23:08:09.407Z,2.77
2022-11-30T23:10:40.323Z,2.75
2022-11-30T23:13:11.099Z,2.76
2022-11-30T23:15:41.765Z,2.75
2022-11-30T23:18:12.558Z,2.70
2022-11-30T23:20:43.149Z,2.66
2022-11-30T23:23:13.823Z,2.63
2022-11-30T23:25:44.776Z,2.59
2022-11-30T23:28:15.526Z,2.58
2022-11-30T23:30:46.200Z,2.59
2022-11-30T23:33:16.936Z,2.59
2022-11-30T23:35:47.494Z,2.58
2022-11-30T23:38:18.070Z,2.58
2022-11-30T23:40:48.682Z,2.57
2022-11-30T23:43:19.353Z,2.56
2022-11-30T23:45:50.054Z,2.57
2022-11-30T23:48:20.690Z,2.58
2022-11-30T23:50:51.291Z,2.60
2022-11-30T23:53:22.567Z,2.62
2022-11-30T23:55:53.620Z,2.61
2022-11-30T23:58:25.339Z,2.59
